createdAt,value
2018-08-09T00:01:32.118Z,100249.94
2018-08-09T00:04:01.621Z,100247.48
2018-08-09T00:06:30.367Z,100243.95
2018-08-09T00:09:00.195Z,100239.87
2018-08-09T00:11:29.258Z,100240.42
2018-08-09T00:13:58.045Z,100235.80
2018-08-09T00:16:27.400Z,100248.06
2018-08-09T00:18:56.179Z,100254.06
2018-08-09T00:21:24.944Z,100256.00
2018-08-09T00:23:53.827Z,100269.63
2018-08-09T00:26:23.375Z,100270.46
2018-08-09T00:28:52.928Z,100266.69
2018-08-09T00:31:21.711Z,100272.14
2018-08-09T00:33:51.009Z,100271.33
2018-08-09T00:36:19.759Z,100270.55
2018-08-09T00:38:49.065Z,100273.27
2018-08-09T00:41:17.891Z,100270.55
2018-08-09T00:43:46.631Z,100272.19
2018-08-09T00:46:15.571Z,100271.64
2018-08-09T00:48:44.919Z,100268.10
2018-08-09T00:51:14.375Z,100283.08
2018-08-09T00:53:43.598Z,100284.20
2018-08-09T00:56:13.428Z,100292.64
2018-08-09T00:58:43.203Z,100297.81
2018-08-09T01:01:12.146Z,100294.00
2018-08-09T01:03:42.009Z,100303.83
2018-08-09T01:06:10.891Z,100314.44
2018-08-09T01:08:45.679Z,100324.52
2018-08-09T01:11:14.479Z,100317.43
2018-08-09T01:13:43.390Z,100317.70
2018-08-09T01:16:13.260Z,100318.75
2018-08-09T01:18:42.997Z,100322.87
2018-08-09T01:21:12.083Z,100322.31
2018-08-09T01:23:41.075Z,100329.39
2018-08-09T01:26:11.619Z,100337.83
2018-08-09T01:28:41.363Z,100344.63
2018-08-09T01:31:10.490Z,100353.59
2018-08-09T01:33:40.131Z,100355.80
2018-08-09T01:36:08.946Z,100361.78
2018-08-09T01:38:37.696Z,100376.48
2018-08-09T01:41:07.812Z,100379.47
2018-08-09T01:43:47.565Z,100391.98
2018-08-09T01:46:17.284Z,100387.36
2018-08-09T01:48:48.137Z,100397.97
2018-08-09T01:51:17.737Z,100398.78
2018-08-09T01:53:46.439Z,100393.60
2018-08-09T01:56:16.046Z,100391.97
2018-08-09T01:58:44.886Z,100389.25
2018-08-09T02:01:13.979Z,100387.34
2018-08-09T02:03:44.159Z,100384.62
2018-08-09T02:06:13.608Z,100377.84
2018-08-09T02:08:43.152Z,100379.73
2018-08-09T02:11:12.977Z,100367.50
2018-08-09T02:13:43.290Z,100369.67
2018-08-09T02:16:13.903Z,100363.41
2018-08-09T02:18:43.287Z,100356.07
2018-08-09T02:21:12.699Z,100357.95
2018-08-09T02:23:42.106Z,100351.69
2018-08-09T02:26:11.478Z,100348.98
2018-08-09T02:28:41.954Z,100343.53
2018-08-09T02:31:10.872Z,100341.89
2018-08-09T02:33:40.644Z,100341.64
2018-08-09T02:36:09.489Z,100334.55
2018-08-09T02:38:38.267Z,100338.64
2018-08-09T02:41:07.045Z,100344.34
2018-08-09T02:43:36.161Z,100343.52
2018-08-09T02:46:05.217Z,100343.81
2018-08-09T02:48:34.652Z,100352.52
2018-08-09T02:51:04.157Z,100348.98
2018-08-09T02:53:32.952Z,100356.30
2018-08-09T02:56:02.300Z,100357.39
2018-08-09T02:58:31.702Z,100362.55
2018-08-09T03:01:00.429Z,100356.59
2018-08-09T03:03:29.681Z,100362.30
2018-08-09T03:05:58.459Z,100364.99
2018-08-09T03:08:27.211Z,100368.53
2018-08-09T03:10:56.704Z,100373.16
2018-08-09T03:13:25.642Z,100378.31
2018-08-09T03:15:55.067Z,100376.12
2018-08-09T03:18:23.940Z,100379.91
2018-08-09T03:20:52.817Z,100378.00
2018-08-09T03:23:21.578Z,100382.36
2018-08-09T03:25:51.035Z,100372.04
2018-08-09T03:28:20.362Z,100381.57
2018-08-09T03:30:49.164Z,100382.40
2018-08-09T03:33:17.982Z,100385.12
2018-08-09T03:35:47.594Z,100382.41
2018-08-09T03:38:16.370Z,100378.85
2018-08-09T03:40:45.143Z,100385.65
2018-08-09T03:43:14.427Z,100386.47
2018-08-09T03:45:43.450Z,100393.55
2018-08-09T03:48:13.052Z,100399.00
2018-08-09T03:50:42.114Z,100399.56
2018-08-09T03:53:12.219Z,100396.03
2018-08-09T03:55:41.932Z,100401.47
2018-08-09T03:58:10.856Z,100406.37
2018-08-09T04:00:39.673Z,100408.80
2018-08-09T04:03:09.143Z,100419.16
2018-08-09T04:05:37.944Z,100419.17
2018-08-09T04:08:06.687Z,100419.98
2018-08-09T04:10:36.248Z,100415.09
2018-08-09T04:13:05.084Z,100421.09
2018-08-09T04:15:33.820Z,100422.17
2018-08-09T04:18:03.105Z,100427.91
2018-08-09T04:20:31.856Z,100427.94
2018-08-09T04:23:00.599Z,100429.03
2018-08-09T04:25:29.952Z,100427.11
2018-08-09T04:27:59.887Z,100427.66
2018-08-09T04:30:28.646Z,100416.79
2018-08-09T04:32:57.518Z,100420.03
2018-08-09T04:35:27.222Z,100428.21
2018-08-09T04:37:56.041Z,100432.84
2018-08-09T04:40:24.830Z,100426.56
2018-08-09T04:42:53.677Z,100432.55
2018-08-09T04:45:22.508Z,100436.34
2018-08-09T04:47:52.995Z,100434.72
2018-08-09T04:50:21.846Z,100428.18
2018-08-09T04:52:51.322Z,100441.78
2018-08-09T04:55:20.156Z,100440.14
2018-08-09T04:57:49.365Z,100441.78
2018-08-09T05:00:18.131Z,100440.69
2018-08-09T05:02:48.576Z,100439.33
2018-08-09T05:05:17.912Z,100442.32
2018-08-09T05:07:46.698Z,100445.89
2018-08-09T05:10:16.470Z,100445.89
2018-08-09T05:12:45.298Z,100458.96
2018-08-09T05:15:14.371Z,100458.16
2018-08-09T05:17:44.348Z,100460.89
2018-08-09T05:20:13.425Z,100458.70
2018-08-09T05:22:42.370Z,100461.44
2018-08-09T05:25:11.390Z,100470.67
2018-08-09T05:27:41.149Z,100463.87
2018-08-09T05:30:09.891Z,100473.66
2018-08-09T05:32:38.700Z,100475.27
2018-08-09T05:35:08.162Z,100470.00
2018-08-09T05:37:36.943Z,100474.58
2018-08-09T05:40:05.956Z,100478.31
2018-08-09T05:42:34.725Z,100480.70
2018-08-09T05:45:03.607Z,100484.70
2018-08-09T05:47:34.217Z,100486.53
2018-08-09T05:50:03.548Z,100488.34
2018-08-09T05:52:32.694Z,100494.01
2018-08-09T05:55:01.483Z,100488.25
2018-08-09T05:57:31.200Z,100497.53
2018-08-09T06:00:00.000Z,100493.63
2018-08-09T06:02:29.532Z,100499.52
2018-08-09T06:04:58.351Z,100507.61
2018-08-09T06:07:27.167Z,100509.14
2018-08-09T06:09:56.743Z,100504.09
2018-08-09T06:12:25.530Z,100507.59
2018-08-09T06:14:54.368Z,100512.11
2018-08-09T06:17:23.882Z,100507.02
2018-08-09T06:19:52.660Z,100515.63
2018-08-09T06:22:21.427Z,100526.73
2018-08-09T06:24:50.192Z,100526.71
2018-08-09T06:27:19.643Z,100530.00
2018-08-09T06:29:48.585Z,100536.58
2018-08-09T06:32:17.415Z,100548.42
2018-08-09T06:34:46.876Z,100553.75
2018-08-09T06:37:15.827Z,100548.25
2018-08-09T06:39:44.631Z,100558.20
2018-08-09T06:42:13.759Z,100555.64
2018-08-09T06:44:42.697Z,100561.19
2018-08-09T06:47:12.139Z,100560.09
2018-08-09T06:49:41.996Z,100558.98
2018-08-09T06:52:11.832Z,100563.05
2018-08-09T06:54:40.658Z,100565.14
2018-08-09T06:57:10.501Z,100570.19
2018-08-09T06:59:39.419Z,100567.33
2018-08-09T07:02:08.828Z,100567.51
2018-08-09T07:04:37.696Z,100564.61
2018-08-09T07:07:06.643Z,100564.09
2018-08-09T07:09:35.852Z,100566.27
2018-08-09T07:12:04.720Z,100567.52
2018-08-09T07:14:33.502Z,100569.36
2018-08-09T07:17:03.456Z,100560.70
2018-08-09T07:19:32.315Z,100565.78
2018-08-09T07:22:01.104Z,100564.27
2018-08-09T07:24:29.922Z,100562.34
2018-08-09T07:26:59.328Z,100560.34
2018-08-09T07:29:28.159Z,100553.94
2018-08-09T07:31:56.944Z,100564.20
2018-08-09T07:34:26.585Z,100558.34
2018-08-09T07:36:55.395Z,100568.59
2018-08-09T07:39:24.857Z,100572.29
2018-08-09T07:41:53.687Z,100574.67
2018-08-09T07:44:22.513Z,100577.92
2018-08-09T07:46:51.431Z,100585.71
2018-08-09T07:49:20.831Z,100584.57
2018-08-09T07:51:50.276Z,100592.33
2018-08-09T07:54:19.078Z,100596.78
2018-08-09T07:56:48.725Z,100597.13
2018-08-09T07:59:17.515Z,100606.19
2018-08-09T08:01:46.490Z,100598.27
2018-08-09T08:04:16.031Z,100600.95
2018-08-09T08:06:45.065Z,100608.58
2018-08-09T08:09:14.769Z,100607.45
2018-08-09T08:11:44.350Z,100607.48
2018-08-09T08:14:13.441Z,100606.66
2018-08-09T08:16:43.266Z,100607.98
2018-08-09T08:19:12.248Z,100601.64
2018-08-09T08:21:41.052Z,100612.58
2018-08-09T08:24:09.848Z,100608.55
2018-08-09T08:26:39.302Z,100614.00
2018-08-09T08:29:08.265Z,100616.52
2018-08-09T08:31:37.052Z,100614.77
2018-08-09T08:34:06.363Z,100618.89
2018-08-09T08:36:35.309Z,100626.86
2018-08-09T08:39:04.453Z,100625.73
2018-08-09T08:41:33.339Z,100629.57
2018-08-09T08:44:02.159Z,100621.47
2018-08-09T08:46:31.132Z,100618.99
2018-08-09T08:49:00.498Z,100622.91
2018-08-09T08:51:29.879Z,100623.41
2018-08-09T08:53:58.707Z,100617.33
2018-08-09T08:56:28.228Z,100620.53
2018-08-09T08:58:57.003Z,100619.64
2018-08-09T09:01:25.783Z,100619.81
2018-08-09T09:03:55.067Z,100618.30
2018-08-09T09:06:23.900Z,100622.75
2018-08-09T09:08:53.095Z,100621.09
2018-08-09T09:11:21.824Z,100615.51
2018-08-09T09:13:52.035Z,100624.14
2018-08-09T09:16:21.438Z,100624.22
2018-08-09T09:18:50.251Z,100626.44
2018-08-09T09:21:19.032Z,100631.96
2018-08-09T09:23:47.806Z,100625.38
2018-08-09T09:26:17.440Z,100629.77
2018-08-09T09:28:47.484Z,100635.22
2018-08-09T09:31:16.470Z,100633.45
2018-08-09T09:33:46.911Z,100637.16
2018-08-09T09:36:15.971Z,100638.38
2018-08-09T09:38:45.459Z,100634.73
2018-08-09T09:41:14.414Z,100634.33
2018-08-09T09:43:44.572Z,100641.41
2018-08-09T09:46:14.030Z,100631.80
2018-08-09T09:48:43.999Z,100628.80
2018-08-09T09:51:12.960Z,100636.25
2018-08-09T09:53:41.755Z,100629.87
2018-08-09T09:56:11.259Z,100629.52
2018-08-09T09:58:40.331Z,100623.20
2018-08-09T10:01:14.268Z,100629.58
2018-08-09T10:03:44.019Z,100634.67
2018-08-09T10:06:12.957Z,100633.97
2018-08-09T10:08:44.260Z,100639.77
2018-08-09T10:11:13.862Z,100643.57
2018-08-09T10:13:42.635Z,100649.94
2018-08-09T10:16:12.987Z,100647.54
2018-08-09T10:18:41.786Z,100653.67
2018-08-09T10:21:10.574Z,100655.93
2018-08-09T10:23:39.410Z,100670.38
2018-08-09T10:26:08.916Z,100656.84
2018-08-09T10:28:38.196Z,100652.37
2018-08-09T10:31:07.101Z,100654.08
2018-08-09T10:33:35.818Z,100647.62
2018-08-09T10:36:05.044Z,100654.97
2018-08-09T10:38:33.811Z,100647.48
2018-08-09T10:41:02.824Z,100655.69
2018-08-09T10:43:31.660Z,100649.78
2018-08-09T10:46:02.854Z,100650.34
2018-08-09T10:48:32.253Z,100652.45
2018-08-09T10:51:01.876Z,100648.78
2018-08-09T10:53:30.694Z,100641.59
2018-08-09T10:56:00.118Z,100642.78
2018-08-09T10:58:28.871Z,100640.67
2018-08-09T11:00:57.689Z,100638.55
2018-08-09T11:03:26.939Z,100640.50
2018-08-09T11:05:55.647Z,100636.25
2018-08-09T11:08:24.379Z,100635.82
2018-08-09T11:10:54.035Z,100643.14
2018-08-09T11:13:22.753Z,100643.44
2018-08-09T11:15:51.581Z,100643.44
2018-08-09T11:18:20.995Z,100640.12
2018-08-09T11:20:49.811Z,100640.12
2018-08-09T11:23:18.568Z,100640.24
2018-08-09T11:25:48.027Z,100636.92
2018-08-09T11:28:17.666Z,100628.76
2018-08-09T11:30:46.540Z,100632.85
2018-08-09T11:33:16.597Z,100627.16
2018-08-09T11:35:46.226Z,100627.31
2018-08-09T11:38:15.439Z,100623.09
2018-08-09T11:40:44.685Z,100621.41
2018-08-09T11:43:14.157Z,100626.72
2018-08-09T11:45:43.113Z,100613.51
2018-08-09T11:48:12.639Z,100611.06
2018-08-09T11:50:41.511Z,100605.91
2018-08-09T11:53:11.003Z,100606.87
2018-08-09T11:55:40.344Z,100598.01
2018-08-09T11:58:09.477Z,100595.27
2018-08-09T12:00:38.208Z,100606.55
2018-08-09T12:03:07.406Z,100588.25
2018-08-09T12:05:36.136Z,100590.14
2018-08-09T12:08:05.008Z,100586.00
2018-08-09T12:10:34.266Z,100582.22
2018-08-09T12:13:03.111Z,100580.23
2018-08-09T12:15:31.884Z,100573.91
2018-08-09T12:18:01.186Z,100574.78
2018-08-09T12:20:30.048Z,100582.41
2018-08-09T12:22:58.838Z,100580.80
2018-08-09T12:25:28.671Z,100574.96
2018-08-09T12:27:58.241Z,100581.43
2018-08-09T12:30:27.343Z,100569.18
2018-08-09T12:32:56.127Z,100570.97
2018-08-09T12:35:25.631Z,100588.16
2018-08-09T12:37:54.461Z,100585.32
2018-08-09T12:40:23.269Z,100588.66
2018-08-09T12:42:52.115Z,100582.52
2018-08-09T12:45:20.993Z,100576.02
2018-08-09T12:47:50.460Z,100581.30
2018-08-09T12:50:19.201Z,100582.50
2018-08-09T12:52:48.707Z,100584.12
2018-08-09T12:55:17.561Z,100574.12
2018-08-09T12:57:46.834Z,100574.91
2018-08-09T13:00:15.984Z,100573.70
2018-08-09T13:02:45.548Z,100565.07
2018-08-09T13:05:14.644Z,100568.63
2018-08-09T13:07:44.819Z,100573.02
2018-08-09T13:10:15.001Z,100566.35
2018-08-09T13:12:44.205Z,100563.02
2018-08-09T13:15:14.323Z,100567.16
2018-08-09T13:17:45.121Z,100560.98
2018-08-09T13:20:17.729Z,100548.09
2018-08-09T13:22:47.274Z,100548.15
2018-08-09T13:25:16.539Z,100562.45
2018-08-09T13:27:46.092Z,100556.20
2018-08-09T13:30:15.269Z,100557.74
2018-08-09T13:32:45.208Z,100569.98
2018-08-09T13:35:14.660Z,100562.90
2018-08-09T13:37:43.576Z,100558.34
2018-08-09T13:40:12.407Z,100556.96
2018-08-09T13:42:41.767Z,100558.11
2018-08-09T13:45:13.422Z,100562.83
2018-08-09T13:47:43.012Z,100548.81
2018-08-09T13:50:12.435Z,100556.87
2018-08-09T13:52:42.554Z,100563.40
2018-08-09T13:55:13.716Z,100552.56
2018-08-09T13:57:43.322Z,100556.00
2018-08-09T14:00:13.451Z,100557.74
2018-08-09T14:02:44.664Z,100562.48
2018-08-09T14:05:15.308Z,100560.38
2018-08-09T14:07:45.103Z,100561.55
2018-08-09T14:10:14.547Z,100566.95
2018-08-09T14:12:43.517Z,100561.17
2018-08-09T14:15:14.152Z,100547.28
2018-08-09T14:17:44.386Z,100554.62
2018-08-09T14:20:15.867Z,100546.56
2018-08-09T14:22:44.980Z,100547.95
2018-08-09T14:25:14.921Z,100551.98
2018-08-09T14:27:45.256Z,100550.77
2018-08-09T14:30:15.734Z,100556.55
2018-08-09T14:32:45.467Z,100557.50
2018-08-09T14:35:16.105Z,100550.45
2018-08-09T14:37:45.794Z,100550.02
2018-08-09T14:40:15.564Z,100556.20
2018-08-09T14:42:44.730Z,100561.98
2018-08-09T14:45:16.814Z,100552.23
2018-08-09T14:47:47.889Z,100556.11
2018-08-09T14:50:17.035Z,100555.66
2018-08-09T14:52:47.751Z,100548.68
2018-08-09T14:55:17.748Z,100548.87
2018-08-09T14:57:47.405Z,100538.59
2018-08-09T15:00:18.143Z,100537.46
2018-08-09T15:02:48.727Z,100543.06
2018-08-09T15:05:18.044Z,100541.38
2018-08-09T15:07:49.318Z,100547.75
2018-08-09T15:10:18.898Z,100548.41
2018-08-09T15:12:48.293Z,100548.34
2018-08-09T15:15:17.373Z,100555.25
2018-08-09T15:17:47.645Z,100551.91
2018-08-09T15:20:17.427Z,100555.14
2018-08-09T15:22:46.788Z,100556.44
2018-08-09T15:25:17.038Z,100547.84
2018-08-09T15:27:47.615Z,100554.90
2018-08-09T15:30:19.276Z,100553.84
2018-08-09T15:32:48.567Z,100558.66
2018-08-09T15:35:18.637Z,100562.55
2018-08-09T15:37:47.577Z,100561.30
2018-08-09T15:40:16.942Z,100564.38
2018-08-09T15:42:46.545Z,100551.81
2018-08-09T15:45:16.446Z,100561.89
2018-08-09T15:47:47.835Z,100554.53
2018-08-09T15:50:18.847Z,100556.89
2018-08-09T15:52:48.282Z,100564.09
2018-08-09T15:55:18.778Z,100559.66
2018-08-09T15:57:48.227Z,100561.50
2018-08-09T16:00:20.458Z,100563.24
2018-08-09T16:02:49.667Z,100555.50
2018-08-09T16:05:18.563Z,100550.28
2018-08-09T16:07:48.957Z,100550.37
2018-08-09T16:10:18.621Z,100546.56
2018-08-09T16:12:48.150Z,100538.61
2018-08-09T16:15:18.754Z,100542.63
2018-08-09T16:17:49.707Z,100544.19
2018-08-09T16:20:18.615Z,100542.31
2018-08-09T16:22:47.939Z,100538.63
2018-08-09T16:25:19.774Z,100540.72
2018-08-09T16:27:50.162Z,100543.16
2018-08-09T16:30:21.022Z,100543.20
2018-08-09T16:32:50.074Z,100533.91
2018-08-09T16:35:19.459Z,100528.33
2018-08-09T16:37:48.535Z,100532.42
2018-08-09T16:40:18.939Z,100530.45
2018-08-09T16:42:47.965Z,100519.31
2018-08-09T16:45:18.323Z,100516.23
2018-08-09T16:47:48.264Z,100515.06
2018-08-09T16:50:19.159Z,100519.27
2018-08-09T16:52:49.444Z,100514.39
2018-08-09T16:55:19.671Z,100504.89
2018-08-09T16:57:49.041Z,100507.45
2018-08-09T17:00:19.564Z,100504.21
2018-08-09T17:02:49.391Z,100507.58
2018-08-09T17:05:20.538Z,100515.33
2018-08-09T17:07:50.257Z,100514.98
2018-08-09T17:10:20.567Z,100520.08
2018-08-09T17:12:49.503Z,100515.60
2018-08-09T17:15:23.054Z,100521.13
2018-08-09T17:17:52.876Z,100522.55
2018-08-09T17:20:24.152Z,100522.28
2018-08-09T17:22:54.039Z,100521.80
2018-08-09T17:25:23.641Z,100514.05
2018-08-09T17:27:54.125Z,100523.07
2018-08-09T17:30:24.820Z,100515.86
2018-08-09T17:32:53.692Z,100516.42
2018-08-09T17:35:23.283Z,100518.91
2018-08-09T17:37:52.203Z,100521.61
2018-08-09T17:43:05.952Z,100518.42
2018-08-09T17:45:35.575Z,100514.03
2018-08-09T17:48:06.707Z,100500.58
2018-08-09T17:50:36.231Z,100508.45
2018-08-09T17:53:06.052Z,100500.74
2018-08-09T17:55:35.639Z,100500.30
2018-08-09T17:58:04.796Z,100505.78
2018-08-09T18:00:35.201Z,100497.97
2018-08-09T18:03:05.346Z,100497.52
2018-08-09T18:05:34.274Z,100496.38
2018-08-09T18:08:04.215Z,100495.49
2018-08-09T18:10:34.431Z,100508.36
2018-08-09T18:13:03.199Z,100510.09
2018-08-09T18:15:32.452Z,100517.83
2018-08-09T18:18:04.687Z,100522.19
2018-08-09T18:20:35.222Z,100525.49
2018-08-09T18:23:04.815Z,100515.81
2018-08-09T18:25:34.501Z,100512.00
2018-08-09T18:28:04.222Z,100507.72
2018-08-09T18:30:33.057Z,100512.80
2018-08-09T18:33:01.861Z,100519.17
2018-08-09T18:35:31.173Z,100519.66
2018-08-09T18:38:00.052Z,100526.97
2018-08-09T18:40:29.237Z,100520.19
2018-08-09T18:42:58.185Z,100517.30
2018-08-09T18:45:27.027Z,100517.44
2018-08-09T18:47:56.595Z,100516.34
2018-08-09T18:50:27.815Z,100505.88
2018-08-09T18:52:57.688Z,100518.39
2018-08-09T18:55:27.612Z,100507.39
2018-08-09T18:57:56.396Z,100506.70
2018-08-09T19:00:26.956Z,100502.93
2018-08-09T19:02:56.562Z,100502.97
2018-08-09T19:05:25.581Z,100503.05
2018-08-09T19:07:55.033Z,100506.65
2018-08-09T19:10:25.536Z,100501.38
2018-08-09T19:12:54.405Z,100507.33
2018-08-09T19:15:23.514Z,100505.08
2018-08-09T19:17:52.807Z,100508.86
2018-08-09T19:20:30.665Z,100487.11
2018-08-09T19:23:00.329Z,100486.70
2018-08-09T19:25:29.965Z,100488.25
2018-08-09T19:27:59.415Z,100481.84
2018-08-09T19:30:29.564Z,100477.66
2018-08-09T19:32:58.515Z,100473.69
2018-08-09T19:35:27.821Z,100465.08
2018-08-09T19:37:56.815Z,100466.02
2018-08-09T19:40:28.566Z,100468.53
2018-08-09T19:42:57.426Z,100471.93
2018-08-09T19:45:26.509Z,100480.53
2018-08-09T19:47:55.981Z,100484.73
2018-08-09T19:50:25.523Z,100500.11
2018-08-09T19:52:55.493Z,100495.84
2018-08-09T19:55:26.253Z,100495.91
2018-08-09T19:57:55.511Z,100500.33
2018-08-09T20:00:28.609Z,100500.98
2018-08-09T20:02:58.020Z,100499.93
2018-08-09T20:05:26.874Z,100506.81
2018-08-09T20:07:57.131Z,100500.28
2018-08-09T20:10:25.917Z,100504.42
2018-08-09T20:12:55.193Z,100504.98
2018-08-09T20:15:24.671Z,100507.49
2018-08-09T20:17:54.054Z,100506.97
2018-08-09T20:20:24.300Z,100500.17
2018-08-09T20:22:53.738Z,100504.54
2018-08-09T20:25:23.200Z,100495.86
2018-08-09T20:27:52.617Z,100492.33
2018-08-09T20:30:21.411Z,100494.54
2018-08-09T20:32:50.574Z,100499.19
2018-08-09T20:35:21.994Z,100498.13
2018-08-09T20:37:51.219Z,100503.05
2018-08-09T20:40:20.938Z,100496.80
2018-08-09T20:42:50.986Z,100497.89
2018-08-09T20:45:21.196Z,100492.72
2018-08-09T20:47:50.915Z,100491.92
2018-08-09T20:50:21.406Z,100496.56
2018-08-09T20:52:51.221Z,100504.42
2018-08-09T20:55:20.968Z,100498.19
2018-08-09T20:57:51.855Z,100490.55
2018-08-09T21:00:23.542Z,100482.09
2018-08-09T21:02:54.191Z,100468.50
2018-08-09T21:05:28.091Z,100469.85
2018-08-09T21:07:58.411Z,100479.67
2018-08-09T21:10:27.640Z,100463.33
2018-08-09T21:12:56.450Z,100455.42
2018-08-09T21:15:25.350Z,100461.44
2018-08-09T21:17:54.570Z,100453.53
2018-08-09T21:20:23.415Z,100454.89
2018-08-09T21:22:53.203Z,100462.27
2018-08-09T21:25:22.778Z,100456.81
2018-08-09T21:27:52.107Z,100452.98
2018-08-09T21:30:22.245Z,100469.59
2018-08-09T21:32:51.402Z,100462.50
2018-08-09T21:35:20.878Z,100455.97
2018-08-09T21:37:49.715Z,100450.51
2018-08-09T21:40:19.553Z,100445.58
2018-08-09T21:42:48.525Z,100445.30
2018-08-09T21:45:19.478Z,100439.85
2018-08-09T21:47:49.197Z,100432.75
2018-08-09T21:50:20.259Z,100433.03
2018-08-09T21:52:49.962Z,100432.20
2018-08-09T21:55:19.263Z,100432.20
2018-08-09T21:57:48.967Z,100435.19
2018-08-09T22:00:53.639Z,100435.19
2018-08-09T22:03:25.797Z,100413.67
2018-08-09T22:05:59.680Z,100421.57
2018-08-09T22:08:34.703Z,100424.29
2018-08-09T22:11:08.825Z,100425.11
2018-08-09T22:13:43.684Z,100412.04
2018-08-09T22:16:18.423Z,100420.19
2018-08-09T22:18:53.138Z,100409.03
2018-08-09T22:21:27.150Z,100417.19
2018-08-09T22:23:56.642Z,100415.30
2018-08-09T22:26:25.993Z,100412.84
2018-08-09T22:28:56.125Z,100405.75
2018-08-09T22:31:24.942Z,100402.49
2018-08-09T22:33:54.457Z,100393.48
2018-08-09T22:36:23.316Z,100389.67
2018-08-09T22:38:52.159Z,100377.45
2018-08-09T22:41:21.057Z,100366.30
2018-08-09T22:43:49.907Z,100365.20
2018-08-09T22:46:19.379Z,100355.96
2018-08-09T22:48:49.093Z,100345.63
2018-08-09T22:51:19.003Z,100335.81
2018-08-09T22:53:49.305Z,100333.08
2018-08-09T22:56:18.740Z,100336.34
2018-08-09T22:58:47.856Z,100335.80
2018-08-09T23:01:17.385Z,100333.36
2018-08-09T23:03:46.971Z,100323.84
2018-08-09T23:06:16.654Z,100323.57
2018-08-09T23:08:47.078Z,100324.92
2018-08-09T23:11:16.539Z,100326.00
2018-08-09T23:13:45.788Z,100327.06
2018-08-09T23:16:16.085Z,100325.19
2018-08-09T23:18:45.132Z,100320.83
2018-08-09T23:21:14.041Z,100323.83
2018-08-09T23:23:43.570Z,100320.55
2018-08-09T23:26:13.078Z,100321.91
2018-08-09T23:28:42.319Z,100311.59
2018-08-09T23:31:11.146Z,100316.48
2018-08-09T23:33:40.650Z,100311.58
2018-08-09T23:36:09.513Z,100308.30
2018-08-09T23:38:38.352Z,100316.47
2018-08-09T23:41:07.272Z,100313.48
2018-08-09T23:43:36.111Z,100299.64
2018-08-09T23:46:05.076Z,100295.00
2018-08-09T23:48:34.610Z,100295.80
2018-08-09T23:51:04.165Z,100290.37
2018-08-09T23:53:32.977Z,100288.45
2018-08-09T23:56:02.278Z,100278.64
2018-08-09T23:58:31.064Z,100268.58
